sensor_id;sensor_type;location;lat;lon;timestamp;temperature;humidity
30288;DHT22;17103;48.316;11.558;2023-11-22T00:01:58;14.00;51.40
30288;DHT22;17103;48.316;11.558;2023-11-22T00:04:24;14.00;51.20
30288;DHT22;17103;48.316;11.558;2023-11-22T00:06:51;14.10;51.20
30288;DHT22;17103;48.316;11.558;2023-11-22T00:09:16;14.10;51.10
30288;DHT22;17103;48.316;11.558;2023-11-22T00:11:47;14.10;51.10
30288;DHT22;17103;48.316;11.558;2023-11-22T00:14:12;14.20;51.20
30288;DHT22;17103;48.316;11.558;2023-11-22T00:16:38;14.20;51.10
30288;DHT22;17103;48.316;11.558;2023-11-22T00:19:05;14.20;51.00
30288;DHT22;17103;48.316;11.558;2023-11-22T00:21:32;14.20;51.00
30288;DHT22;17103;48.316;11.558;2023-11-22T00:23:57;14.30;51.10
30288;DHT22;17103;48.316;11.558;2023-11-22T00:26:23;14.40;51.10
30288;DHT22;17103;48.316;11.558;2023-11-22T00:28:48;14.40;51.10
30288;DHT22;17103;48.316;11.558;2023-11-22T00:31:14;14.40;51.00
30288;DHT22;17103;48.316;11.558;2023-11-22T00:33:40;14.40;50.90
30288;DHT22;17103;48.316;11.558;2023-11-22T00:36:05;14.50;50.80
30288;DHT22;17103;48.316;11.558;2023-11-22T00:38:33;14.50;50.70
30288;DHT22;17103;48.316;11.558;2023-11-22T00:41:01;14.50;50.70
30288;DHT22;17103;48.316;11.558;2023-11-22T00:43:27;14.60;50.60
30288;DHT22;17103;48.316;11.558;2023-11-22T00:45:53;14.60;50.50
30288;DHT22;17103;48.316;11.558;2023-11-22T00:48:18;14.60;49.70
30288;DHT22;17103;48.316;11.558;2023-11-22T00:50:44;14.60;49.70
30288;DHT22;17103;48.316;11.558;2023-11-22T00:53:10;14.50;49.50
30288;DHT22;17103;48.316;11.558;2023-11-22T00:55:35;14.50;49.60
30288;DHT22;17103;48.316;11.558;2023-11-22T00:58:01;14.50;49.80
30288;DHT22;17103;48.316;11.558;2023-11-22T01:00:30;14.50;49.90
30288;DHT22;17103;48.316;11.558;2023-11-22T01:02:55;14.40;49.90
30288;DHT22;17103;48.316;11.558;2023-11-22T01:05:21;14.40;49.90
30288;DHT22;17103;48.316;11.558;2023-11-22T01:07:48;14.40;49.80
30288;DHT22;17103;48.316;11.558;2023-11-22T01:10:13;14.40;49.80
30288;DHT22;17103;48.316;11.558;2023-11-22T01:12:39;14.40;49.70
30288;DHT22;17103;48.316;11.558;2023-11-22T01:15:04;14.40;49.80
30288;DHT22;17103;48.316;11.558;2023-11-22T01:17:31;14.30;49.70
30288;DHT22;17103;48.316;11.558;2023-11-22T01:19:56;14.30;49.60
30288;DHT22;17103;48.316;11.558;2023-11-22T01:22:23;15.20;50.30
30288;DHT22;17103;48.316;11.558;2023-11-22T01:24:49;14.20;49.60
30288;DHT22;17103;48.316;11.558;2023-11-22T01:27:14;14.20;49.60
30288;DHT22;17103;48.316;11.558;2023-11-22T01:29:40;15.30;50.50
30288;DHT22;17103;48.316;11.558;2023-11-22T01:32:07;14.70;49.80
30288;DHT22;17103;48.316;11.558;2023-11-22T01:34:34;14.20;49.20
30288;DHT22;17103;48.316;11.558;2023-11-22T01:36:59;14.10;49.30
30288;DHT22;17103;48.316;11.558;2023-11-22T01:39:25;14.10;49.30
30288;DHT22;17103;48.316;11.558;2023-11-22T01:41:51;14.00;49.10
30288;DHT22;17103;48.316;11.558;2023-11-22T01:44:17;13.90;49.00
30288;DHT22;17103;48.316;11.558;2023-11-22T01:46:43;13.90;49.10
30288;DHT22;17103;48.316;11.558;2023-11-22T01:49:10;13.90;49.30
30288;DHT22;17103;48.316;11.558;2023-11-22T01:51:36;13.90;49.30
30288;DHT22;17103;48.316;11.558;2023-11-22T01:54:02;14.00;49.30
30288;DHT22;17103;48.316;11.558;2023-11-22T01:56:28;13.90;49.00
30288;DHT22;17103;48.316;11.558;2023-11-22T01:58:55;13.90;48.90
30288;DHT22;17103;48.316;11.558;2023-11-22T02:01:20;13.90;48.90
30288;DHT22;17103;48.316;11.558;2023-11-22T02:03:46;13.90;48.50
30288;DHT22;17103;48.316;11.558;2023-11-22T02:06:14;13.80;48.30
30288;DHT22;17103;48.316;11.558;2023-11-22T02:08:41;13.80;48.20
30288;DHT22;17103;48.316;11.558;2023-11-22T02:11:08;13.80;48.10
30288;DHT22;17103;48.316;11.558;2023-11-22T02:13:33;13.70;48.20
30288;DHT22;17103;48.316;11.558;2023-11-22T02:15:59;13.70;48.10
30288;DHT22;17103;48.316;11.558;2023-11-22T02:18:26;13.70;48.30
30288;DHT22;17103;48.316;11.558;2023-11-22T02:20:52;13.70;48.10
30288;DHT22;17103;48.316;11.558;2023-11-22T02:23:18;13.60;48.00
30288;DHT22;17103;48.316;11.558;2023-11-22T02:25:43;13.60;48.00
30288;DHT22;17103;48.316;11.558;2023-11-22T02:28:09;13.60;47.80
30288;DHT22;17103;48.316;11.558;2023-11-22T02:30:35;13.50;47.60
30288;DHT22;17103;48.316;11.558;2023-11-22T02:33:01;13.50;47.60
30288;DHT22;17103;48.316;11.558;2023-11-22T02:35:26;13.50;47.40
30288;DHT22;17103;48.316;11.558;2023-11-22T02:37:57;13.50;47.40
30288;DHT22;17103;48.316;11.558;2023-11-22T02:40:23;13.40;47.40
30288;DHT22;17103;48.316;11.558;2023-11-22T02:42:51;13.40;47.40
30288;DHT22;17103;48.316;11.558;2023-11-22T02:45:17;13.40;47.90
30288;DHT22;17103;48.316;11.558;2023-11-22T02:47:45;13.40;47.60
30288;DHT22;17103;48.316;11.558;2023-11-22T02:50:12;13.40;47.30
30288;DHT22;17103;48.316;11.558;2023-11-22T02:52:37;13.40;47.50
30288;DHT22;17103;48.316;11.558;2023-11-22T02:55:03;13.30;47.20
30288;DHT22;17103;48.316;11.558;2023-11-22T02:57:30;13.40;47.20
30288;DHT22;17103;48.316;11.558;2023-11-22T02:59:56;13.40;47.50
30288;DHT22;17103;48.316;11.558;2023-11-22T03:02:22;13.30;47.30
30288;DHT22;17103;48.316;11.558;2023-11-22T03:04:47;13.30;47.10
30288;DHT22;17103;48.316;11.558;2023-11-22T03:07:13;13.30;47.40
30288;DHT22;17103;48.316;11.558;2023-11-22T03:09:39;13.30;47.30
30288;DHT22;17103;48.316;11.558;2023-11-22T03:12:06;13.60;47.00
30288;DHT22;17103;48.316;11.558;2023-11-22T03:14:34;13.20;46.50
30288;DHT22;17103;48.316;11.558;2023-11-22T03:17:00;13.20;46.40
30288;DHT22;17103;48.316;11.558;2023-11-22T03:19:26;13.20;46.40
30288;DHT22;17103;48.316;11.558;2023-11-22T03:21:51;13.10;45.90
30288;DHT22;17103;48.316;11.558;2023-11-22T03:24:17;13.00;45.80
30288;DHT22;17103;48.316;11.558;2023-11-22T03:26:42;13.00;46.00
30288;DHT22;17103;48.316;11.558;2023-11-22T03:29:08;12.90;45.60
30288;DHT22;17103;48.316;11.558;2023-11-22T03:31:33;12.80;44.90
30288;DHT22;17103;48.316;11.558;2023-11-22T03:33:59;12.80;45.20
30288;DHT22;17103;48.316;11.558;2023-11-22T03:36:24;12.70;45.40
30288;DHT22;17103;48.316;11.558;2023-11-22T03:38:50;12.60;44.50
30288;DHT22;17103;48.316;11.558;2023-11-22T03:41:16;12.50;44.70
30288;DHT22;17103;48.316;11.558;2023-11-22T03:43:46;12.40;45.10
30288;DHT22;17103;48.316;11.558;2023-11-22T03:46:12;12.30;45.10
30288;DHT22;17103;48.316;11.558;2023-11-22T03:48:37;12.10;44.80
30288;DHT22;17103;48.316;11.558;2023-11-22T03:51:03;12.00;45.00
30288;DHT22;17103;48.316;11.558;2023-11-22T03:53:29;11.90;44.60
30288;DHT22;17103;48.316;11.558;2023-11-22T03:55:54;11.80;44.80
30288;DHT22;17103;48.316;11.558;2023-11-22T03:58:20;11.70;45.00
30288;DHT22;17103;48.316;11.558;2023-11-22T04:00:46;11.60;45.20
30288;DHT22;17103;48.316;11.558;2023-11-22T04:03:11;11.60;45.50
30288;DHT22;17103;48.316;11.558;2023-11-22T04:05:37;11.60;45.60
30288;DHT22;17103;48.316;11.558;2023-11-22T04:08:03;11.60;45.50
30288;DHT22;17103;48.316;11.558;2023-11-22T04:10:28;11.50;45.50
30288;DHT22;17103;48.316;11.558;2023-11-22T04:12:54;12.20;46.20
30288;DHT22;17103;48.316;11.558;2023-11-22T04:15:19;11.60;46.00
30288;DHT22;17103;48.316;11.558;2023-11-22T04:17:45;11.60;46.10
30288;DHT22;17103;48.316;11.558;2023-11-22T04:20:12;11.60;46.30
30288;DHT22;17103;48.316;11.558;2023-11-22T04:22:40;11.10;45.90
30288;DHT22;17103;48.316;11.558;2023-11-22T04:25:06;11.80;46.40
30288;DHT22;17103;48.316;11.558;2023-11-22T04:27:32;11.80;46.10
30288;DHT22;17103;48.316;11.558;2023-11-22T04:29:58;11.80;46.00
30288;DHT22;17103;48.316;11.558;2023-11-22T04:32:23;11.90;46.00
30288;DHT22;17103;48.316;11.558;2023-11-22T04:34:49;11.90;45.90
30288;DHT22;17103;48.316;11.558;2023-11-22T04:37:15;11.90;45.70
30288;DHT22;17103;48.316;11.558;2023-11-22T04:39:40;13.00;46.20
30288;DHT22;17103;48.316;11.558;2023-11-22T04:42:06;11.80;45.30
30288;DHT22;17103;48.316;11.558;2023-11-22T04:44:31;11.80;45.20
30288;DHT22;17103;48.316;11.558;2023-11-22T04:47:00;11.80;45.40
30288;DHT22;17103;48.316;11.558;2023-11-22T04:49:26;11.80;45.50
30288;DHT22;17103;48.316;11.558;2023-11-22T04:51:51;11.80;45.50
30288;DHT22;17103;48.316;11.558;2023-11-22T04:54:17;11.80;45.50
30288;DHT22;17103;48.316;11.558;2023-11-22T04:56:42;11.80;45.60
30288;DHT22;17103;48.316;11.558;2023-11-22T04:59:08;11.90;45.90
30288;DHT22;17103;48.316;11.558;2023-11-22T05:01:34;11.90;45.70
30288;DHT22;17103;48.316;11.558;2023-11-22T05:04:00;11.90;45.70
30288;DHT22;17103;48.316;11.558;2023-11-22T05:06:26;11.90;45.60
30288;DHT22;17103;48.316;11.558;2023-11-22T05:08:52;11.90;45.60
30288;DHT22;17103;48.316;11.558;2023-11-22T05:11:18;12.00;45.60
30288;DHT22;17103;48.316;11.558;2023-11-22T05:13:44;12.00;45.70
30288;DHT22;17103;48.316;11.558;2023-11-22T05:16:09;13.00;46.10
30288;DHT22;17103;48.316;11.558;2023-11-22T05:18:35;12.00;45.50
30288;DHT22;17103;48.316;11.558;2023-11-22T05:21:03;12.10;45.60
30288;DHT22;17103;48.316;11.558;2023-11-22T05:23:29;11.90;45.20
30288;DHT22;17103;48.316;11.558;2023-11-22T05:25:56;11.80;44.50
30288;DHT22;17103;48.316;11.558;2023-11-22T05:28:22;11.80;44.30
30288;DHT22;17103;48.316;11.558;2023-11-22T05:30:48;12.30;44.40
30288;DHT22;17103;48.316;11.558;2023-11-22T05:33:13;11.50;43.20
30288;DHT22;17103;48.316;11.558;2023-11-22T05:35:39;11.30;42.80
30288;DHT22;17103;48.316;11.558;2023-11-22T05:38:05;11.20;43.40
30288;DHT22;17103;48.316;11.558;2023-11-22T05:40:31;11.10;43.40
30288;DHT22;17103;48.316;11.558;2023-11-22T05:42:56;11.00;43.50
30288;DHT22;17103;48.316;11.558;2023-11-22T05:45:22;10.90;43.50
30288;DHT22;17103;48.316;11.558;2023-11-22T05:47:49;10.80;43.40
30288;DHT22;17103;48.316;11.558;2023-11-22T05:50:14;9.60;43.50
30288;DHT22;17103;48.316;11.558;2023-11-22T05:52:40;10.60;43.60
30288;DHT22;17103;48.316;11.558;2023-11-22T05:55:05;10.50;43.50
30288;DHT22;17103;48.316;11.558;2023-11-22T05:57:31;10.40;43.80
30288;DHT22;17103;48.316;11.558;2023-11-22T05:59:57;10.30;43.50
30288;DHT22;17103;48.316;11.558;2023-11-22T06:02:22;10.80;44.10
30288;DHT22;17103;48.316;11.558;2023-11-22T06:04:48;10.10;43.50
30288;DHT22;17103;48.316;11.558;2023-11-22T06:07:13;10.00;43.80
30288;DHT22;17103;48.316;11.558;2023-11-22T06:09:39;10.00;44.00
30288;DHT22;17103;48.316;11.558;2023-11-22T06:12:05;9.90;44.60
30288;DHT22;17103;48.316;11.558;2023-11-22T06:14:31;9.80;44.60
30288;DHT22;17103;48.316;11.558;2023-11-22T06:16:56;10.30;44.50
30288;DHT22;17103;48.316;11.558;2023-11-22T06:19:22;9.70;44.90
30288;DHT22;17103;48.316;11.558;2023-11-22T06:21:48;9.70;45.00
30288;DHT22;17103;48.316;11.558;2023-11-22T06:24:14;9.60;44.90
30288;DHT22;17103;48.316;11.558;2023-11-22T06:26:42;9.60;45.00
30288;DHT22;17103;48.316;11.558;2023-11-22T06:29:07;9.60;45.00
30288;DHT22;17103;48.316;11.558;2023-11-22T06:31:33;9.50;45.20
30288;DHT22;17103;48.316;11.558;2023-11-22T06:33:59;9.50;45.20
30288;DHT22;17103;48.316;11.558;2023-11-22T06:36:26;9.50;45.20
30288;DHT22;17103;48.316;11.558;2023-11-22T06:38:53;9.40;45.20
30288;DHT22;17103;48.316;11.558;2023-11-22T06:41:19;9.40;45.30
30288;DHT22;17103;48.316;11.558;2023-11-22T06:43:47;9.40;45.30
30288;DHT22;17103;48.316;11.558;2023-11-22T06:46:13;9.40;45.40
30288;DHT22;17103;48.316;11.558;2023-11-22T06:48:41;9.30;45.20
30288;DHT22;17103;48.316;11.558;2023-11-22T06:51:07;9.30;45.20
30288;DHT22;17103;48.316;11.558;2023-11-22T06:53:32;9.30;45.10
30288;DHT22;17103;48.316;11.558;2023-11-22T06:55:59;9.30;45.10
30288;DHT22;17103;48.316;11.558;2023-11-22T06:58:26;9.20;45.00
30288;DHT22;17103;48.316;11.558;2023-11-22T07:00:52;9.20;45.10
30288;DHT22;17103;48.316;11.558;2023-11-22T07:03:17;9.20;45.20
30288;DHT22;17103;48.316;11.558;2023-11-22T07:05:43;9.10;45.10
30288;DHT22;17103;48.316;11.558;2023-11-22T07:08:08;9.10;45.00
30288;DHT22;17103;48.316;11.558;2023-11-22T07:10:37;9.00;45.00
30288;DHT22;17103;48.316;11.558;2023-11-22T07:13:02;9.00;45.00
30288;DHT22;17103;48.316;11.558;2023-11-22T07:15:28;9.00;45.20
30288;DHT22;17103;48.316;11.558;2023-11-22T07:17:57;8.90;45.20
30288;DHT22;17103;48.316;11.558;2023-11-22T07:20:22;9.10;45.50
30288;DHT22;17103;48.316;11.558;2023-11-22T07:22:49;8.90;45.30
30288;DHT22;17103;48.316;11.558;2023-11-22T07:25:20;10.00;45.30
30288;DHT22;17103;48.316;11.558;2023-11-22T07:27:50;8.90;45.80
30288;DHT22;17103;48.316;11.558;2023-11-22T07:30:16;8.90;45.40
30288;DHT22;17103;48.316;11.558;2023-11-22T07:32:45;8.90;45.30
30288;DHT22;17103;48.316;11.558;2023-11-22T07:35:11;8.90;45.40
30288;DHT22;17103;48.316;11.558;2023-11-22T07:37:37;8.80;45.30
30288;DHT22;17103;48.316;11.558;2023-11-22T07:40:08;8.80;45.40
30288;DHT22;17103;48.316;11.558;2023-11-22T07:42:37;8.80;45.40
30288;DHT22;17103;48.316;11.558;2023-11-22T07:45:03;8.80;45.50
30288;DHT22;17103;48.316;11.558;2023-11-22T07:47:31;8.80;45.40
30288;DHT22;17103;48.316;11.558;2023-11-22T07:49:58;8.80;45.40
30288;DHT22;17103;48.316;11.558;2023-11-22T07:52:23;8.70;45.40
30288;DHT22;17103;48.316;11.558;2023-11-22T07:54:56;8.70;45.50
30288;DHT22;17103;48.316;11.558;2023-11-22T07:57:22;8.70;45.50
30288;DHT22;17103;48.316;11.558;2023-11-22T07:59:48;8.70;45.50
30288;DHT22;17103;48.316;11.558;2023-11-22T08:02:14;8.70;45.40
30288;DHT22;17103;48.316;11.558;2023-11-22T08:04:44;8.70;45.40
30288;DHT22;17103;48.316;11.558;2023-11-22T08:07:10;8.70;45.30
30288;DHT22;17103;48.316;11.558;2023-11-22T08:09:38;8.70;45.30
30288;DHT22;17103;48.316;11.558;2023-11-22T08:12:04;8.60;45.20
30288;DHT22;17103;48.316;11.558;2023-11-22T08:14:30;8.50;45.40
30288;DHT22;17103;48.316;11.558;2023-11-22T08:16:55;8.50;45.30
30288;DHT22;17103;48.316;11.558;2023-11-22T08:19:21;8.40;45.40
30288;DHT22;17103;48.316;11.558;2023-11-22T08:21:49;8.40;45.40
30288;DHT22;17103;48.316;11.558;2023-11-22T08:24:14;8.50;45.50
30288;DHT22;17103;48.316;11.558;2023-11-22T08:26:40;8.40;45.60
30288;DHT22;17103;48.316;11.558;2023-11-22T08:29:06;8.40;45.70
30288;DHT22;17103;48.316;11.558;2023-11-22T08:31:33;8.40;45.60
30288;DHT22;17103;48.316;11.558;2023-11-22T08:33:59;8.40;45.60
30288;DHT22;17103;48.316;11.558;2023-11-22T08:36:25;8.40;45.30
30288;DHT22;17103;48.316;11.558;2023-11-22T08:38:53;8.40;45.30
30288;DHT22;17103;48.316;11.558;2023-11-22T08:41:20;8.30;45.00
30288;DHT22;17103;48.316;11.558;2023-11-22T08:43:46;8.30;45.10
30288;DHT22;17103;48.316;11.558;2023-11-22T08:46:13;8.20;45.10
30288;DHT22;17103;48.316;11.558;2023-11-22T08:48:39;8.20;45.10
30288;DHT22;17103;48.316;11.558;2023-11-22T08:51:05;8.10;45.20
30288;DHT22;17103;48.316;11.558;2023-11-22T08:53:30;8.10;45.20
30288;DHT22;17103;48.316;11.558;2023-11-22T08:55:57;8.00;45.20
30288;DHT22;17103;48.316;11.558;2023-11-22T08:58:23;8.00;45.30
30288;DHT22;17103;48.316;11.558;2023-11-22T09:00:48;7.90;45.30
30288;DHT22;17103;48.316;11.558;2023-11-22T09:03:14;7.90;45.40
30288;DHT22;17103;48.316;11.558;2023-11-22T09:05:40;7.90;45.50
30288;DHT22;17103;48.316;11.558;2023-11-22T09:08:05;7.90;45.50
30288;DHT22;17103;48.316;11.558;2023-11-22T09:10:31;7.90;45.50
30288;DHT22;17103;48.316;11.558;2023-11-22T09:12:56;7.90;45.60
30288;DHT22;17103;48.316;11.558;2023-11-22T09:15:25;7.90;45.60
30288;DHT22;17103;48.316;11.558;2023-11-22T09:17:52;7.90;45.70
30288;DHT22;17103;48.316;11.558;2023-11-22T09:20:19;7.90;45.60
30288;DHT22;17103;48.316;11.558;2023-11-22T09:22:46;7.90;45.60
30288;DHT22;17103;48.316;11.558;2023-11-22T09:25:15;7.90;45.60
30288;DHT22;17103;48.316;11.558;2023-11-22T09:27:45;8.10;45.80
30288;DHT22;17103;48.316;11.558;2023-11-22T09:30:16;7.80;45.60
30288;DHT22;17103;48.316;11.558;2023-11-22T09:33:04;7.80;45.70
30288;DHT22;17103;48.316;11.558;2023-11-22T09:35:30;7.80;45.80
30288;DHT22;17103;48.316;11.558;2023-11-22T09:37:57;7.80;45.80
30288;DHT22;17103;48.316;11.558;2023-11-22T09:40:23;7.80;45.80
30288;DHT22;17103;48.316;11.558;2023-11-22T09:42:48;7.80;45.90
30288;DHT22;17103;48.316;11.558;2023-11-22T09:45:17;7.80;45.90
30288;DHT22;17103;48.316;11.558;2023-11-22T09:47:46;7.90;46.00
30288;DHT22;17103;48.316;11.558;2023-11-22T09:51:02;7.90;46.60
30288;DHT22;17103;48.316;11.558;2023-11-22T09:53:00;7.90;46.10
30288;DHT22;17103;48.316;11.558;2023-11-22T09:55:26;7.90;46.00
30288;DHT22;17103;48.316;11.558;2023-11-22T09:57:53;7.90;46.00
30288;DHT22;17103;48.316;11.558;2023-11-22T10:00:19;7.90;46.00
30288;DHT22;17103;48.316;11.558;2023-11-22T10:02:47;7.90;45.90
30288;DHT22;17103;48.316;11.558;2023-11-22T10:05:12;7.90;46.00
30288;DHT22;17103;48.316;11.558;2023-11-22T10:07:38;7.90;46.10
30288;DHT22;17103;48.316;11.558;2023-11-22T10:10:04;7.90;46.10
30288;DHT22;17103;48.316;11.558;2023-11-22T10:12:31;7.90;46.10
30288;DHT22;17103;48.316;11.558;2023-11-22T10:15:12;7.90;46.20
30288;DHT22;17103;48.316;11.558;2023-11-22T10:17:38;7.90;46.20
30288;DHT22;17103;48.316;11.558;2023-11-22T10:20:04;7.90;46.20
30288;DHT22;17103;48.316;11.558;2023-11-22T10:22:34;7.90;46.30
30288;DHT22;17103;48.316;11.558;2023-11-22T10:25:10;7.90;46.30
30288;DHT22;17103;48.316;11.558;2023-11-22T10:27:37;7.90;46.30
30288;DHT22;17103;48.316;11.558;2023-11-22T10:30:03;8.00;46.40
30288;DHT22;17103;48.316;11.558;2023-11-22T10:32:29;8.00;46.40
30288;DHT22;17103;48.316;11.558;2023-11-22T10:34:55;8.10;46.50
30288;DHT22;17103;48.316;11.558;2023-11-22T10:37:20;8.10;46.30
30288;DHT22;17103;48.316;11.558;2023-11-22T10:39:50;8.10;46.40
30288;DHT22;17103;48.316;11.558;2023-11-22T10:42:16;8.10;46.20
30288;DHT22;17103;48.316;11.558;2023-11-22T10:44:42;8.10;46.20
30288;DHT22;17103;48.316;11.558;2023-11-22T10:47:08;8.10;46.30
30288;DHT22;17103;48.316;11.558;2023-11-22T10:49:34;8.20;46.40
30288;DHT22;17103;48.316;11.558;2023-11-22T10:52:00;8.20;46.40
30288;DHT22;17103;48.316;11.558;2023-11-22T10:54:26;8.30;46.50
30288;DHT22;17103;48.316;11.558;2023-11-22T10:56:54;8.30;46.50
30288;DHT22;17103;48.316;11.558;2023-11-22T10:59:22;8.30;46.30
30288;DHT22;17103;48.316;11.558;2023-11-22T11:01:48;8.30;46.10
30288;DHT22;17103;48.316;11.558;2023-11-22T11:06:43;8.40;46.10
30288;DHT22;17103;48.316;11.558;2023-11-22T11:09:09;8.40;46.20
30288;DHT22;17103;48.316;11.558;2023-11-22T11:11:37;8.40;46.10
30288;DHT22;17103;48.316;11.558;2023-11-22T11:14:03;8.40;46.00
30288;DHT22;17103;48.316;11.558;2023-11-22T11:16:30;8.40;46.10
30288;DHT22;17103;48.316;11.558;2023-11-22T11:18:57;8.40;46.20
30288;DHT22;17103;48.316;11.558;2023-11-22T11:21:24;8.40;46.10
30288;DHT22;17103;48.316;11.558;2023-11-22T11:23:51;8.50;46.20
30288;DHT22;17103;48.316;11.558;2023-11-22T11:26:20;8.50;46.30
30288;DHT22;17103;48.316;11.558;2023-11-22T11:28:47;8.50;46.40
30288;DHT22;17103;48.316;11.558;2023-11-22T11:31:14;8.50;46.40
30288;DHT22;17103;48.316;11.558;2023-11-22T11:36:24;8.60;46.40
30288;DHT22;17103;48.316;11.558;2023-11-22T11:38:51;8.70;46.40
30288;DHT22;17103;48.316;11.558;2023-11-22T11:41:16;8.70;46.50
30288;DHT22;17103;48.316;11.558;2023-11-22T11:43:43;8.80;46.30
30288;DHT22;17103;48.316;11.558;2023-11-22T11:46:09;8.80;46.30
30288;DHT22;17103;48.316;11.558;2023-11-22T11:48:35;8.80;46.20
30288;DHT22;17103;48.316;11.558;2023-11-22T11:51:01;8.80;46.20
30288;DHT22;17103;48.316;11.558;2023-11-22T11:53:27;8.90;46.20
30288;DHT22;17103;48.316;11.558;2023-11-22T11:55:53;8.80;46.20
30288;DHT22;17103;48.316;11.558;2023-11-22T11:58:19;8.90;46.30
30288;DHT22;17103;48.316;11.558;2023-11-22T12:00:44;8.90;46.20
30288;DHT22;17103;48.316;11.558;2023-11-22T12:03:10;9.00;46.40
30288;DHT22;17103;48.316;11.558;2023-11-22T12:05:36;9.00;46.30
30288;DHT22;17103;48.316;11.558;2023-11-22T12:08:02;9.00;46.30
30288;DHT22;17103;48.316;11.558;2023-11-22T12:10:28;9.00;46.10
30288;DHT22;17103;48.316;11.558;2023-11-22T12:12:54;9.10;45.90
30288;DHT22;17103;48.316;11.558;2023-11-22T12:15:19;9.10;46.10
30288;DHT22;17103;48.316;11.558;2023-11-22T12:17:47;9.10;46.00
30288;DHT22;17103;48.316;11.558;2023-11-22T12:20:14;9.80;46.20
30288;DHT22;17103;48.316;11.558;2023-11-22T12:22:41;9.00;45.80
30288;DHT22;17103;48.316;11.558;2023-11-22T12:25:07;9.00;45.80
30288;DHT22;17103;48.316;11.558;2023-11-22T12:27:32;9.00;45.90
30288;DHT22;17103;48.316;11.558;2023-11-22T12:29:58;9.00;45.90
30288;DHT22;17103;48.316;11.558;2023-11-22T12:32:24;9.00;45.90
30288;DHT22;17103;48.316;11.558;2023-11-22T12:34:50;9.00;46.00
30288;DHT22;17103;48.316;11.558;2023-11-22T12:37:21;9.10;46.10
30288;DHT22;17103;48.316;11.558;2023-11-22T12:39:50;9.10;46.00
30288;DHT22;17103;48.316;11.558;2023-11-22T12:42:18;9.10;46.00
30288;DHT22;17103;48.316;11.558;2023-11-22T12:44:50;9.10;45.90
30288;DHT22;17103;48.316;11.558;2023-11-22T12:47:31;9.10;45.90
30288;DHT22;17103;48.316;11.558;2023-11-22T12:50:00;9.20;46.00
30288;DHT22;17103;48.316;11.558;2023-11-22T12:52:26;9.20;45.80
30288;DHT22;17103;48.316;11.558;2023-11-22T12:54:52;9.20;45.90
30288;DHT22;17103;48.316;11.558;2023-11-22T12:57:18;9.20;45.90
30288;DHT22;17103;48.316;11.558;2023-11-22T12:59:44;9.20;46.00
30288;DHT22;17103;48.316;11.558;2023-11-22T13:02:09;9.20;46.00
30288;DHT22;17103;48.316;11.558;2023-11-22T13:04:35;9.20;46.10
30288;DHT22;17103;48.316;11.558;2023-11-22T13:07:01;9.30;46.20
30288;DHT22;17103;48.316;11.558;2023-11-22T13:09:26;9.30;46.20
30288;DHT22;17103;48.316;11.558;2023-11-22T13:11:52;9.30;46.10
30288;DHT22;17103;48.316;11.558;2023-11-22T13:14:17;9.40;46.20
30288;DHT22;17103;48.316;11.558;2023-11-22T13:16:43;9.40;46.70
30288;DHT22;17103;48.316;11.558;2023-11-22T13:19:10;9.40;46.10
30288;DHT22;17103;48.316;11.558;2023-11-22T13:21:36;9.50;46.30
30288;DHT22;17103;48.316;11.558;2023-11-22T13:24:01;9.50;46.80
30288;DHT22;17103;48.316;11.558;2023-11-22T13:26:28;9.50;46.30
30288;DHT22;17103;48.316;11.558;2023-11-22T13:28:54;9.60;46.20
30288;DHT22;17103;48.316;11.558;2023-11-22T13:31:20;9.60;46.20
30288;DHT22;17103;48.316;11.558;2023-11-22T13:33:48;9.60;46.30
30288;DHT22;17103;48.316;11.558;2023-11-22T13:36:20;9.60;46.20
30288;DHT22;17103;48.316;11.558;2023-11-22T13:38:46;9.70;46.20
30288;DHT22;17103;48.316;11.558;2023-11-22T13:41:21;9.30;45.90
30288;DHT22;17103;48.316;11.558;2023-11-22T13:43:47;9.70;46.20
30288;DHT22;17103;48.316;11.558;2023-11-22T13:46:14;9.70;46.30
30288;DHT22;17103;48.316;11.558;2023-11-22T13:48:40;9.70;46.00
30288;DHT22;17103;48.316;11.558;2023-11-22T13:51:07;9.70;45.90
30288;DHT22;17103;48.316;11.558;2023-11-22T13:53:33;9.80;45.90
30288;DHT22;17103;48.316;11.558;2023-11-22T13:56:02;9.80;45.80
30288;DHT22;17103;48.316;11.558;2023-11-22T13:58:33;9.80;45.60
30288;DHT22;17103;48.316;11.558;2023-11-22T14:00:59;9.70;45.50
30288;DHT22;17103;48.316;11.558;2023-11-22T14:03:25;9.70;44.80
30288;DHT22;17103;48.316;11.558;2023-11-22T14:05:51;9.60;44.60
30288;DHT22;17103;48.316;11.558;2023-11-22T14:08:17;9.60;44.60
30288;DHT22;17103;48.316;11.558;2023-11-22T14:10:42;9.50;44.50
30288;DHT22;17103;48.316;11.558;2023-11-22T14:13:10;9.50;44.70
30288;DHT22;17103;48.316;11.558;2023-11-22T14:15:37;9.40;44.00
30288;DHT22;17103;48.316;11.558;2023-11-22T14:18:03;9.30;44.00
30288;DHT22;17103;48.316;11.558;2023-11-22T14:20:29;9.20;43.50
30288;DHT22;17103;48.316;11.558;2023-11-22T14:22:56;9.10;44.20
30288;DHT22;17103;48.316;11.558;2023-11-22T14:25:22;9.00;43.70
30288;DHT22;17103;48.316;11.558;2023-11-22T14:27:50;9.00;44.00
30288;DHT22;17103;48.316;11.558;2023-11-22T14:30:18;8.90;44.20
30288;DHT22;17103;48.316;11.558;2023-11-22T14:32:49;8.90;44.10
30288;DHT22;17103;48.316;11.558;2023-11-22T14:35:16;8.80;44.30
30288;DHT22;17103;48.316;11.558;2023-11-22T14:37:42;8.80;44.30
30288;DHT22;17103;48.316;11.558;2023-11-22T14:40:10;8.80;44.30
30288;DHT22;17103;48.316;11.558;2023-11-22T14:42:42;8.70;44.30
30288;DHT22;17103;48.316;11.558;2023-11-22T14:45:08;8.70;44.30
30288;DHT22;17103;48.316;11.558;2023-11-22T14:47:35;8.70;44.20
30288;DHT22;17103;48.316;11.558;2023-11-22T14:50:03;8.60;44.50
30288;DHT22;17103;48.316;11.558;2023-11-22T14:52:41;8.60;44.50
30288;DHT22;17103;48.316;11.558;2023-11-22T14:55:06;8.60;44.60
30288;DHT22;17103;48.316;11.558;2023-11-22T14:57:32;8.60;44.70
30288;DHT22;17103;48.316;11.558;2023-11-22T14:59:58;8.60;44.70
30288;DHT22;17103;48.316;11.558;2023-11-22T15:02:23;8.60;44.40
30288;DHT22;17103;48.316;11.558;2023-11-22T15:04:51;8.60;44.20
30288;DHT22;17103;48.316;11.558;2023-11-22T15:07:17;8.60;44.00
30288;DHT22;17103;48.316;11.558;2023-11-22T15:09:42;8.50;44.00
30288;DHT22;17103;48.316;11.558;2023-11-22T15:12:09;8.50;44.20
30288;DHT22;17103;48.316;11.558;2023-11-22T15:14:34;8.50;44.40
30288;DHT22;17103;48.316;11.558;2023-11-22T15:17:00;8.40;44.40
30288;DHT22;17103;48.316;11.558;2023-11-22T15:19:31;8.40;44.50
30288;DHT22;17103;48.316;11.558;2023-11-22T15:21:57;8.40;44.50
30288;DHT22;17103;48.316;11.558;2023-11-22T15:24:22;8.40;44.50
30288;DHT22;17103;48.316;11.558;2023-11-22T15:26:48;8.30;44.20